Time;durP1;ratioP1;P1;durP2;ratioP2;P2;SDS_P1;SDS_P2;PMS_P1;PMS_P2;Temp;Humidity;BMP_temperature;BMP_pressure;BME280_temperature;BME280_humidity;BME280_pressure;Samples;Min_cycle;Max_cycle;Signal;HPM_P1;HPM_P2
2023/07/02 00:01:37;;;;;;;12.80;9.40;;;;;;;19.61;86.45;98473.06;5075157;28;20031;-80
2023/07/02 00:04:02;;;;;;;13.82;9.80;;;;;;;19.53;86.89;98462.41;5075200;28;20025;-79
2023/07/02 00:06:27;;;;;;;10.32;8.52;;;;;;;19.44;87.10;98450.97;5074877;28;20785;-79
2023/07/02 00:08:53;;;;;;;9.43;8.52;;;;;;;19.41;87.10;98446.81;5074961;28;20695;-79
2023/07/02 00:11:18;;;;;;;9.40;8.40;;;;;;;19.37;86.61;98444.66;5074660;28;20035;-79
2023/07/02 00:13:43;;;;;;;10.65;8.45;;;;;;;19.51;86.06;98469.66;5074981;28;20025;-80
2023/07/02 00:16:09;;;;;;;11.80;8.95;;;;;;;19.22;85.85;98433.88;5075017;28;20047;-79
2023/07/02 00:18:34;;;;;;;10.40;8.80;;;;;;;19.48;85.68;98473.44;5074868;28;20029;-79
2023/07/02 00:21:03;;;;;;;11.35;8.23;;;;;;;19.33;85.22;98467.91;5075037;28;20153;-79
2023/07/02 00:23:29;;;;;;;10.30;8.70;;;;;;;19.33;85.18;98461.78;5074625;28;20573;-80
2023/07/02 00:25:56;;;;;;;12.95;8.75;;;;;;;19.40;85.25;98476.03;5074807;28;20027;-80
2023/07/02 00:28:21;;;;;;;10.63;8.70;;;;;;;19.22;85.15;98457.63;5074702;28;20522;-80
2023/07/02 00:30:47;;;;;;;9.90;8.55;;;;;;;19.31;85.64;98469.06;5074887;28;20052;-80
2023/07/02 00:33:12;;;;;;;10.00;8.10;;;;;;;19.28;85.25;98464.91;5074423;28;20021;-80
2023/07/02 00:35:37;;;;;;;9.95;8.02;;;;;;;19.25;85.40;98457.28;5074470;28;20045;-80
2023/07/02 00:38:03;;;;;;;9.70;7.70;;;;;;;19.31;85.31;98472.53;5073504;28;20107;-80
2023/07/02 00:40:28;;;;;;;11.32;8.65;;;;;;;19.29;85.59;98463.91;5074452;28;20447;-79
2023/07/02 00:42:53;;;;;;;8.52;7.60;;;;;;;19.34;85.22;98463.44;5074552;28;20032;-79
2023/07/02 00:45:19;;;;;;;7.93;6.80;;;;;;;19.29;85.44;98463.09;5074270;28;20391;-80
2023/07/02 00:47:45;;;;;;;10.85;7.47;;;;;;;19.33;85.70;98467.91;5074662;28;20031;-80
2023/07/02 00:50:11;;;;;;;13.38;8.93;;;;;;;19.20;85.95;98449.84;5074285;28;20037;-79
2023/07/02 00:52:37;;;;;;;9.90;7.78;;;;;;;19.25;86.30;98456.47;5071909;28;20452;-80
2023/07/02 00:55:03;;;;;;;8.88;7.13;;;;;;;19.24;86.62;98446.91;5074270;28;20025;-80
2023/07/02 00:57:29;;;;;;;9.38;7.63;;;;;;;19.26;86.51;98452.88;5073861;28;20051;-80
2023/07/02 01:00:02;;;;;;;8.63;7.38;;;;;;;19.37;86.71;98476.34;5074282;28;20032;-80
2023/07/02 01:02:29;;;;;;;8.18;6.82;;;;;;;19.26;86.96;98456.31;5073876;28;20097;-80
2023/07/02 01:04:59;;;;;;;11.73;7.15;;;;;;;19.27;87.29;98463.25;5073953;28;20029;-79
2023/07/02 01:07:25;;;;;;;8.45;5.88;;;;;;;19.33;87.35;98465.25;5074176;28;20400;-80
2023/07/02 01:09:51;;;;;;;7.25;6.22;;;;;;;19.30;87.56;98451.53;5074004;28;20024;-79
2023/07/02 01:12:18;;;;;;;7.53;5.43;;;;;;;19.39;87.71;98466.47;5073663;28;20028;-80
2023/07/02 01:14:49;;;;;;;6.80;5.63;;;;;;;19.36;87.99;98464.13;5073908;28;20055;-79
2023/07/02 01:17:18;;;;;;;7.53;5.30;;;;;;;19.36;88.06;98458.84;5073551;28;20024;-80
2023/07/02 01:19:53;;;;;;;6.75;4.97;;;;;;;19.40;88.07;98468.94;5073786;28;20476;-80
2023/07/02 01:22:23;;;;;;;5.28;4.18;;;;;;;19.41;88.32;98467.13;5073497;28;20036;-80
2023/07/02 01:24:50;;;;;;;5.03;3.97;;;;;;;19.26;88.83;98445.78;5073677;28;20099;-80
2023/07/02 01:27:16;;;;;;;4.93;4.00;;;;;;;19.33;88.77;98453.88;5073517;28;20024;-79
2023/07/02 01:29:44;;;;;;;6.20;3.60;;;;;;;19.31;88.89;98456.69;5073578;28;20033;-80
2023/07/02 01:32:10;;;;;;;7.30;4.10;;;;;;;19.30;89.56;98464.75;5073339;28;20491;-80
2023/07/02 01:34:35;;;;;;;6.80;3.72;;;;;;;19.37;89.45;98468.41;5073342;28;20033;-80
2023/07/02 01:37:01;;;;;;;4.15;3.75;;;;;;;19.27;89.23;98443.97;5073483;28;20059;-80
2023/07/02 01:39:27;;;;;;;4.30;3.17;;;;;;;19.38;89.20;98454.22;5073121;28;20035;-80
2023/07/02 01:41:54;;;;;;;6.93;3.80;;;;;;;19.22;89.29;98430.41;5073386;28;20029;-80
2023/07/02 01:44:21;;;;;;;3.92;3.53;;;;;;;19.30;89.50;98447.13;5073101;28;20024;-80
2023/07/02 01:46:50;;;;;;;4.68;3.25;;;;;;;19.27;89.66;98439.50;5073133;28;20082;-79
2023/07/02 01:49:16;;;;;;;3.00;2.67;;;;;;;19.35;89.94;98454.56;5072931;28;20111;-80
2023/07/02 01:51:45;;;;;;;3.78;3.00;;;;;;;19.18;90.03;98425.44;5073048;28;20443;-80
2023/07/02 01:54:11;;;;;;;3.78;3.10;;;;;;;19.20;90.48;98441.09;5073059;28;20039;-80
2023/07/02 01:56:36;;;;;;;4.40;3.22;;;;;;;19.25;90.14;98441.44;5072760;28;20025;-80
2023/07/02 01:59:01;;;;;;;3.42;2.90;;;;;;;19.34;90.72;98461.66;5072804;28;20024;-80
2023/07/02 02:01:27;;;;;;;3.83;2.70;;;;;;;19.31;91.19;98451.41;5072665;28;20020;-80
2023/07/02 02:03:53;;;;;;;3.22;2.50;;;;;;;19.40;90.94;98462.84;5072781;28;20099;-80
2023/07/02 02:06:18;;;;;;;4.70;2.72;;;;;;;19.37;90.81;98465.78;5072635;28;20024;-79
2023/07/02 02:08:43;;;;;;;2.72;2.47;;;;;;;19.36;91.25;98469.41;5072632;28;20029;-79
2023/07/02 02:11:09;;;;;;;3.35;2.67;;;;;;;19.31;91.96;98466.41;5072732;28;20400;-79
2023/07/02 02:13:34;;;;;;;3.80;2.60;;;;;;;19.25;94.59;98461.75;5072410;28;20512;-80
2023/07/02 02:15:59;;;;;;;3.65;2.85;;;;;;;19.13;96.56;98445.34;5072416;28;20391;-80
2023/07/02 02:18:24;;;;;;;3.70;2.58;;;;;;;19.17;97.60;98473.94;5072334;28;20120;-79
2023/07/02 02:20:50;;;;;;;3.00;2.22;;;;;;;19.24;97.44;98468.84;5072790;28;20099;-80
2023/07/02 02:23:15;;;;;;;3.67;2.45;;;;;;;19.06;98.72;98445.13;5073003;28;20020;-80
2023/07/02 02:25:40;;;;;;;2.03;1.83;;;;;;;19.08;99.12;98456.34;5072557;28;20111;-80
2023/07/02 02:28:06;;;;;;;3.05;2.20;;;;;;;19.07;99.81;98467.91;5072490;28;20056;-80
2023/07/02 02:30:31;;;;;;;2.55;2.15;;;;;;;19.13;99.79;98477.84;5072216;28;20035;-79
2023/07/02 02:32:56;;;;;;;2.40;2.20;;;;;;;18.98;99.79;98454.81;5072645;28;20443;-80
2023/07/02 02:35:22;;;;;;;2.10;1.90;;;;;;;19.10;99.84;98478.16;5071960;28;20049;-80
2023/07/02 02:37:47;;;;;;;3.67;2.35;;;;;;;19.02;100.00;98472.81;5072543;28;20384;-79
2023/07/02 02:40:13;;;;;;;2.25;1.98;;;;;;;19.02;100.00;98470.19;5072425;28;20119;-79
2023/07/02 02:42:39;;;;;;;3.25;2.35;;;;;;;18.95;100.00;98461.22;5072284;28;20059;-80
2023/07/02 02:45:04;;;;;;;3.20;2.00;;;;;;;19.07;100.00;98482.91;5072371;28;20052;-80
2023/07/02 02:47:30;;;;;;;3.35;2.20;;;;;;;18.93;100.00;98468.47;5072039;28;20545;-79
2023/07/02 02:49:55;;;;;;;3.05;1.80;;;;;;;18.81;100.00;98445.94;5072492;28;20482;-79
2023/07/02 02:52:20;;;;;;;2.00;1.73;;;;;;;19.01;100.00;98478.25;5072166;28;20017;-80
2023/07/02 02:54:46;;;;;;;2.65;1.95;;;;;;;19.01;100.00;98476.44;5072435;28;20033;-79
2023/07/02 02:57:12;;;;;;;2.00;1.90;;;;;;;19.05;100.00;98491.00;5072155;28;20373;-79
2023/07/02 02:59:37;;;;;;;2.90;1.90;;;;;;;18.87;100.00;98450.59;5071420;28;20385;-79
2023/07/02 03:02:03;;;;;;;2.10;1.90;;;;;;;18.93;100.00;98479.84;5072398;28;20020;-79
2023/07/02 03:04:28;;;;;;;2.53;2.13;;;;;;;18.95;100.00;98487.59;5072057;28;20028;-79
2023/07/02 03:06:55;;;;;;;2.97;2.10;;;;;;;18.88;100.00;98484.75;5072069;28;20552;-80
2023/07/02 03:09:20;;;;;;;1.70;1.58;;;;;;;18.88;100.00;98481.28;5071878;28;20081;-79
2023/07/02 03:11:47;;;;;;;2.38;1.80;;;;;;;18.76;100.00;98462.22;5072169;28;20021;-79
2023/07/02 03:14:12;;;;;;;2.42;2.13;;;;;;;18.94;100.00;98493.88;5071976;28;20025;-79
2023/07/02 03:16:38;;;;;;;3.10;1.83;;;;;;;18.79;100.00;98477.72;5072250;28;20028;-79
2023/07/02 03:19:03;;;;;;;4.57;1.95;;;;;;;18.77;100.00;98477.06;5072210;28;20024;-79
2023/07/02 03:21:29;;;;;;;1.80;1.70;;;;;;;18.79;100.00;98480.38;5071967;28;20108;-79
2023/07/02 03:23:55;;;;;;;2.78;2.08;;;;;;;18.76;100.00;98470.16;5071997;28;20472;-79
2023/07/02 03:26:21;;;;;;;1.80;1.70;;;;;;;18.79;100.00;98475.09;5071770;28;20031;-79
2023/07/02 03:28:47;;;;;;;2.35;2.15;;;;;;;18.82;100.00;98476.63;5071761;28;20508;-79
2023/07/02 03:31:12;;;;;;;1.60;1.50;;;;;;;18.82;100.00;98468.69;5071930;28;20414;-79
2023/07/02 03:33:37;;;;;;;2.05;1.85;;;;;;;18.92;100.00;98480.84;5071623;28;20075;-79
2023/07/02 03:36:03;;;;;;;1.80;1.70;;;;;;;18.95;100.00;98491.06;5071575;28;20060;-79
2023/07/02 03:38:28;;;;;;;3.70;1.85;;;;;;;18.85;100.00;98471.88;5071519;28;20028;-79
2023/07/02 03:40:53;;;;;;;3.22;2.45;;;;;;;18.95;100.00;98491.06;5071947;28;20067;-80
2023/07/02 03:43:19;;;;;;;3.47;1.67;;;;;;;18.89;100.00;98478.50;5071656;28;20455;-79
2023/07/02 03:45:44;;;;;;;1.75;1.65;;;;;;;18.94;100.00;98481.50;5071960;28;20059;-80
2023/07/02 03:48:09;;;;;;;2.22;2.03;;;;;;;18.94;100.00;98473.56;5071704;28;20035;-80
2023/07/02 03:50:35;;;;;;;2.08;1.90;;;;;;;18.93;100.00;98474.56;5071509;28;20036;-80
2023/07/02 03:53:00;;;;;;;4.53;2.58;;;;;;;18.98;100.00;98473.28;5071715;28;20024;-79
2023/07/02 03:55:25;;;;;;;1.90;1.70;;;;;;;19.13;100.00;98506.88;5071361;28;20020;-80
2023/07/02 03:57:51;;;;;;;2.35;2.03;;;;;;;19.10;100.00;98506.38;5071560;28;20059;-79
2023/07/02 04:00:16;;;;;;;2.83;2.17;;;;;;;19.06;100.00;98502.38;5071626;28;20067;-80
2023/07/02 04:02:42;;;;;;;2.22;2.03;;;;;;;19.13;100.00;98513.94;5071232;28;20485;-79
2023/07/02 04:05:07;;;;;;;2.08;1.88;;;;;;;19.16;100.00;98514.47;5070376;28;20031;-80
2023/07/02 04:07:32;;;;;;;1.75;1.65;;;;;;;19.18;100.00;98514.34;5071247;28;20354;-80
2023/07/02 04:09:58;;;;;;;1.90;1.75;;;;;;;19.17;100.00;98516.16;5071417;28;20656;-79
2023/07/02 04:12:23;;;;;;;2.53;2.00;;;;;;;19.13;100.00;98496.34;5072939;28;20082;-80
2023/07/02 04:14:48;;;;;;;2.28;2.08;;;;;;;19.20;100.00;98510.56;5075179;28;20051;-79
2023/07/02 04:17:14;;;;;;;2.15;2.05;;;;;;;19.34;100.00;98525.03;5074958;28;20025;-80
2023/07/02 04:19:39;;;;;;;3.03;1.90;;;;;;;19.34;100.00;98509.19;5075076;28;20028;-80
2023/07/02 04:22:05;;;;;;;2.00;1.80;;;;;;;19.45;100.00;98516.81;5075443;28;20032;-79
2023/07/02 04:24:30;;;;;;;2.38;1.80;;;;;;;19.33;100.00;98502.22;5074566;28;20021;-79
2023/07/02 04:26:55;;;;;;;2.03;1.73;;;;;;;19.42;100.00;98519.81;5074771;28;20032;-80
2023/07/02 04:29:21;;;;;;;2.70;1.75;;;;;;;19.41;100.00;98530.50;5074998;28;20017;-80
2023/07/02 04:31:46;;;;;;;3.55;1.90;;;;;;;19.51;100.00;98540.94;5074529;28;20112;-80
2023/07/02 04:34:11;;;;;;;1.83;1.70;;;;;;;19.49;100.00;98533.19;5074581;28;20017;-80
2023/07/02 04:36:37;;;;;;;2.20;2.08;;;;;;;19.34;100.00;98509.19;5074104;28;20114;-80
2023/07/02 04:39:02;;;;;;;4.47;2.55;;;;;;;19.54;100.00;98541.47;5074623;28;20137;-80
2023/07/02 04:41:29;;;;;;;2.00;1.80;;;;;;;19.53;100.00;98534.53;5074631;28;20029;-80
2023/07/02 04:43:55;;;;;;;2.40;2.03;;;;;;;19.53;100.00;98525.78;5074387;28;20590;-80
2023/07/02 04:46:20;;;;;;;2.20;2.00;;;;;;;19.66;100.00;98542.91;5074440;28;20025;-80
2023/07/02 04:48:45;;;;;;;2.05;1.95;;;;;;;19.68;100.00;98533.03;5074295;28;20373;-79
2023/07/02 04:51:11;;;;;;;2.10;1.80;;;;;;;19.82;100.00;98536.06;5074313;28;20028;-80
2023/07/02 04:53:37;;;;;;;2.13;1.92;;;;;;;19.93;100.00;98541.91;5074127;28;20468;-80
2023/07/02 04:56:03;;;;;;;2.25;2.05;;;;;;;19.86;99.46;98526.84;5074342;28;20558;-80
2023/07/02 04:58:28;;;;;;;1.95;1.77;;;;;;;19.88;99.38;98524.84;5073860;28;20048;-79
2023/07/02 05:00:53;;;;;;;2.30;2.10;;;;;;;20.01;99.81;98548.19;5073991;28;20039;-80
2023/07/02 05:03:19;;;;;;;3.00;2.17;;;;;;;19.99;99.34;98553.66;5074206;28;20032;-79
2023/07/02 05:05:44;;;;;;;3.03;2.00;;;;;;;20.00;99.49;98554.47;5074005;28;20032;-80
2023/07/02 05:08:10;;;;;;;2.45;2.20;;;;;;;20.02;99.19;98553.34;5074075;28;20036;-80
2023/07/02 05:10:35;;;;;;;3.83;2.42;;;;;;;19.78;99.29;98529.44;5073572;28;20060;-80
2023/07/02 05:13:01;;;;;;;2.55;2.20;;;;;;;19.88;99.51;98560.03;5073897;28;20020;-80
2023/07/02 05:15:26;;;;;;;2.50;2.30;;;;;;;19.77;99.58;98539.19;5074014;28;20032;-80
2023/07/02 05:17:51;;;;;;;3.53;2.50;;;;;;;19.87;99.91;98558.38;5073566;28;20024;-80
2023/07/02 05:20:17;;;;;;;2.75;2.30;;;;;;;19.82;99.76;98555.38;5074112;28;20028;-80
2023/07/02 05:22:42;;;;;;;3.78;2.50;;;;;;;19.73;99.76;98535.19;5073100;28;20025;-80
2023/07/02 05:25:08;;;;;;;4.15;2.50;;;;;;;19.71;99.93;98545.06;5073631;28;20029;-80
2023/07/02 05:27:33;;;;;;;2.70;2.45;;;;;;;19.80;99.68;98573.19;5073418;28;20472;-80
2023/07/02 05:29:59;;;;;;;2.55;2.35;;;;;;;19.64;99.64;98546.69;5073989;28;20162;-80
2023/07/02 05:32:24;;;;;;;3.08;2.67;;;;;;;19.57;100.00;98543.00;5073896;28;20021;-80
2023/07/02 05:34:49;;;;;;;4.47;2.53;;;;;;;19.73;100.00;98571.34;5073386;28;20032;-80
2023/07/02 05:37:15;;;;;;;4.80;2.35;;;;;;;19.62;100.00;98556.59;5072984;28;20059;-80
2023/07/02 05:39:40;;;;;;;3.25;2.50;;;;;;;19.58;100.00;98552.56;5073259;28;20395;-80
2023/07/02 05:42:06;;;;;;;2.88;2.65;;;;;;;19.66;100.00;98550.81;5073296;28;20031;-80
2023/07/02 05:44:31;;;;;;;4.63;2.45;;;;;;;19.71;100.00;98546.88;5073409;28;20380;-80
2023/07/02 05:46:56;;;;;;;2.63;2.42;;;;;;;19.91;99.52;98574.75;5073381;28;20115;-80
2023/07/02 05:49:22;;;;;;;3.65;2.50;;;;;;;19.91;99.96;98580.88;5073272;28;20052;-80
2023/07/02 05:51:47;;;;;;;2.50;2.30;;;;;;;19.85;99.70;98568.28;5086633;28;20032;-80
2023/07/02 05:54:12;;;;;;;2.40;2.20;;;;;;;20.00;99.28;98580.91;5093735;28;20104;-80
2023/07/02 05:56:38;;;;;;;2.80;2.13;;;;;;;20.01;99.08;98582.56;5092909;28;20581;-79
2023/07/02 05:59:03;;;;;;;3.35;2.30;;;;;;;20.10;98.76;98585.09;5093312;28;20091;-79
2023/07/02 06:01:28;;;;;;;2.60;2.40;;;;;;;20.02;98.99;98569.22;5093711;28;20572;-80
2023/07/02 06:03:54;;;;;;;3.65;2.47;;;;;;;20.12;98.58;98577.81;5092844;28;20089;-80
2023/07/02 06:06:22;;;;;;;5.40;2.90;;;;;;;20.10;98.71;98576.31;5093312;28;20085;-80
2023/07/02 06:08:47;;;;;;;3.90;2.85;;;;;;;20.10;98.43;98576.31;5092718;28;20414;-80
2023/07/02 06:11:13;;;;;;;2.47;2.28;;;;;;;20.07;98.18;98579.31;5092954;28;20074;-80
2023/07/02 06:13:38;;;;;;;4.55;2.30;;;;;;;20.15;98.49;98603.97;5092792;28;20054;-79
2023/07/02 06:16:03;;;;;;;2.50;2.15;;;;;;;20.11;98.66;98596.50;5093043;28;20024;-80
2023/07/02 06:18:29;;;;;;;2.80;2.50;;;;;;;20.14;98.58;98601.44;5092719;28;20032;-80
2023/07/02 06:20:54;;;;;;;3.05;2.72;;;;;;;20.11;98.58;98601.78;5092760;28;20032;-80
2023/07/02 06:23:19;;;;;;;2.78;2.58;;;;;;;20.07;98.39;98600.44;5092682;28;20020;-80
2023/07/02 06:25:45;;;;;;;4.97;3.00;;;;;;;20.07;97.73;98596.00;5092450;28;20051;-80
2023/07/02 06:28:10;;;;;;;2.50;2.30;;;;;;;20.00;97.62;98589.66;5093056;28;20084;-80
2023/07/02 06:30:36;;;;;;;2.80;2.60;;;;;;;19.99;97.72;98588.00;5092569;28;20059;-80
2023/07/02 06:33:01;;;;;;;2.67;2.47;;;;;;;19.99;98.23;98584.53;5092850;28;20020;-80
2023/07/02 06:35:26;;;;;;;3.50;2.95;;;;;;;20.03;98.23;98583.25;5091662;28;20139;-80
2023/07/02 06:37:52;;;;;;;2.90;2.58;;;;;;;20.21;97.65;98607.78;5090083;28;20112;-80
2023/07/02 06:40:17;;;;;;;2.95;2.75;;;;;;;20.07;97.60;98581.94;5092604;28;20028;-80
2023/07/02 06:42:43;;;;;;;3.00;2.78;;;;;;;20.07;97.44;98581.94;5092658;28;20464;-80
2023/07/02 06:45:08;;;;;;;2.80;2.50;;;;;;;20.21;97.55;98585.81;5092700;28;20024;-80
2023/07/02 06:47:34;;;;;;;2.92;2.38;;;;;;;20.30;97.71;98590.13;5092620;28;20028;-80
2023/07/02 06:49:59;;;;;;;3.95;2.67;;;;;;;20.56;97.33;98612.09;5092644;28;20036;-80
2023/07/02 06:52:25;;;;;;;2.70;2.50;;;;;;;20.64;97.15;98604.16;5092420;28;20483;-80
2023/07/02 06:54:50;;;;;;;3.00;2.70;;;;;;;20.59;97.23;98589.78;5092181;28;20028;-80
2023/07/02 06:57:15;;;;;;;2.88;2.30;;;;;;;20.71;97.41;98607.00;5092160;28;20111;-80
2023/07/02 06:59:41;;;;;;;2.60;2.40;;;;;;;20.90;97.46;98604.09;5092264;28;20058;-80
2023/07/02 07:02:06;;;;;;;3.17;2.88;;;;;;;21.06;96.75;98605.91;5092155;28;20024;-80
2023/07/02 07:04:31;;;;;;;3.03;2.70;;;;;;;21.17;96.14;98608.25;5092540;28;20035;-80
2023/07/02 07:06:57;;;;;;;3.30;3.10;;;;;;;21.27;95.54;98607.25;5092242;28;20070;-80
2023/07/02 07:09:22;;;;;;;2.88;2.65;;;;;;;21.24;94.78;98592.53;5092108;28;20031;-80
2023/07/02 07:11:48;;;;;;;3.00;2.70;;;;;;;21.27;95.13;98586.88;5091914;28;20016;-80
2023/07/02 07:14:13;;;;;;;2.90;2.58;;;;;;;21.84;94.14;98618.69;5092371;28;20035;-80
2023/07/02 07:16:38;;;;;;;3.22;2.92;;;;;;;22.00;93.06;98630.25;5091859;28;20017;-80
2023/07/02 07:19:04;;;;;;;3.40;2.42;;;;;;;22.01;92.66;98624.78;5092178;28;20118;-80
2023/07/02 07:21:29;;;;;;;3.17;2.88;;;;;;;21.96;92.64;98619.16;5092042;28;20028;-80
2023/07/02 07:23:55;;;;;;;3.03;2.83;;;;;;;21.79;92.47;98599.81;5091819;28;20047;-80
2023/07/02 07:26:20;;;;;;;3.33;3.00;;;;;;;21.85;92.92;98600.94;5091789;28;20396;-80
2023/07/02 07:28:46;;;;;;;2.95;2.58;;;;;;;21.85;92.80;98598.28;5091975;28;20031;-80
2023/07/02 07:31:11;;;;;;;4.22;2.80;;;;;;;22.06;92.78;98600.41;5092028;28;20153;-80
2023/07/02 07:33:36;;;;;;;2.63;2.42;;;;;;;22.28;92.33;98597.03;5092052;28;20031;-80
2023/07/02 07:36:02;;;;;;;2.47;2.33;;;;;;;22.67;91.24;98605.00;5091533;28;20050;-80
2023/07/02 07:38:27;;;;;;;2.80;2.60;;;;;;;22.88;89.09;98600.88;5091958;28;20020;-80
2023/07/02 07:40:52;;;;;;;2.70;2.50;;;;;;;22.79;88.36;98605.41;5091650;28;20031;-80
2023/07/02 07:43:18;;;;;;;4.47;2.78;;;;;;;22.72;88.70;98615.09;5092459;28;20029;-80
2023/07/02 07:45:43;;;;;;;2.92;2.72;;;;;;;22.70;88.90;98626.88;5091981;28;20529;-80
2023/07/02 07:48:08;;;;;;;3.08;2.85;;;;;;;22.52;88.18;98605.91;5095588;28;20391;-80
2023/07/02 07:50:34;;;;;;;2.80;2.60;;;;;;;22.49;88.59;98617.66;5095513;28;20036;-80
2023/07/02 07:52:59;;;;;;;2.85;2.65;;;;;;;22.48;88.79;98610.72;5095343;28;20045;-80
2023/07/02 07:55:24;;;;;;;2.90;2.67;;;;;;;22.44;89.03;98627.16;5095282;28;20498;-80
2023/07/02 07:57:50;;;;;;;3.85;2.80;;;;;;;22.32;89.39;98622.22;5095231;28;20020;-80
2023/07/02 08:00:17;;;;;;;2.80;2.60;;;;;;;22.25;89.82;98642.50;5095731;28;20024;-80
2023/07/02 08:02:42;;;;;;;2.95;2.67;;;;;;;21.96;91.60;98623.63;5095355;28;20060;-80
2023/07/02 08:05:08;;;;;;;3.47;3.17;;;;;;;21.74;93.38;98635.75;5095879;28;20059;-80
2023/07/02 08:07:33;;;;;;;4.55;3.40;;;;;;;21.50;94.73;98641.91;5094135;28;20028;-80
2023/07/02 08:10:00;;;;;;;3.00;2.80;;;;;;;21.37;96.76;98656.47;5094932;28;20040;-80
2023/07/02 08:12:31;;;;;;;3.10;2.80;;;;;;;21.32;97.96;98660.56;5095440;28;20020;-80
2023/07/02 08:14:57;;;;;;;3.47;3.17;;;;;;;21.29;98.54;98645.00;5095104;28;20039;-80
2023/07/02 08:17:22;;;;;;;3.75;3.30;;;;;;;21.27;99.82;98646.97;5095244;28;20484;-80
2023/07/02 08:19:48;;;;;;;4.53;3.17;;;;;;;21.29;100.00;98645.00;5095301;28;20047;-80
2023/07/02 08:22:13;;;;;;;3.67;3.05;;;;;;;21.25;98.79;98638.38;5094999;28;20050;-80
2023/07/02 08:24:39;;;;;;;3.13;2.78;;;;;;;21.34;98.22;98642.72;5092362;28;20032;-80
2023/07/02 08:27:05;;;;;;;4.07;3.30;;;;;;;21.33;98.62;98639.25;5092367;28;20036;-80
2023/07/02 08:29:30;;;;;;;4.28;3.15;;;;;;;21.35;98.68;98653.13;5092337;28;20702;-80
2023/07/02 08:31:56;;;;;;;3.53;2.75;;;;;;;21.33;98.67;98644.53;5092062;28;20111;-80
2023/07/02 08:34:21;;;;;;;3.53;3.22;;;;;;;21.44;97.59;98653.97;5092314;28;20044;-80
2023/07/02 08:36:47;;;;;;;3.65;3.35;;;;;;;21.53;96.56;98658.31;5058209;28;20085;-80
2023/07/02 08:39:12;;;;;;;3.55;3.25;;;;;;;21.53;96.20;98650.34;5092548;28;20032;-80
2023/07/02 08:41:48;;;;;;;3.10;2.90;;;;;;;21.63;95.61;98660.78;5092747;28;20039;-80
2023/07/02 08:44:18;;;;;;;2.88;2.67;;;;;;;21.68;95.28;98646.03;5092780;28;20060;-80
2023/07/02 08:46:44;;;;;;;2.60;2.40;;;;;;;21.89;94.65;98664.06;5092142;28;20039;-80
2023/07/02 08:49:09;;;;;;;3.08;2.78;;;;;;;22.02;93.55;98668.03;5092083;28;20035;-80
2023/07/02 08:51:35;;;;;;;3.47;3.20;;;;;;;22.14;93.66;98667.53;5091997;28;20038;-80
2023/07/02 08:54:01;;;;;;;2.83;2.63;;;;;;;22.09;92.93;98648.63;5091881;28;20036;-80
2023/07/02 08:56:27;;;;;;;3.72;3.33;;;;;;;22.28;93.27;98671.31;5093798;28;20044;-80
2023/07/02 08:58:53;;;;;;;3.35;3.05;;;;;;;22.28;93.39;98668.66;5093522;28;20027;-80
2023/07/02 09:01:18;;;;;;;3.92;3.53;;;;;;;22.28;93.54;98673.94;5094499;28;20039;-80
2023/07/02 09:03:44;;;;;;;4.32;3.90;;;;;;;22.17;94.22;98669.84;5092913;28;20030;-80
2023/07/02 09:06:10;;;;;;;3.85;3.55;;;;;;;22.04;94.67;98658.91;5094401;28;20119;-80
2023/07/02 09:08:36;;;;;;;3.60;3.30;;;;;;;22.24;94.55;98661.19;5094411;28;20103;-80
2023/07/02 09:11:16;;;;;;;3.97;3.20;;;;;;;22.41;93.59;98676.06;5094125;28;20063;-80
2023/07/02 09:13:49;;;;;;;3.40;3.10;;;;;;;22.44;92.28;98654.50;5093996;28;20426;-80
2023/07/02 09:16:41;;;;;;;4.20;3.40;;;;;;;22.88;90.83;98678.72;5094046;28;20028;-80
2023/07/02 09:19:08;;;;;;;3.60;3.30;;;;;;;22.78;89.00;98656.03;5091296;28;20109;-80
2023/07/02 09:21:47;;;;;;;3.50;3.20;;;;;;;23.10;87.35;98685.09;5091449;28;20036;-80
2023/07/02 09:24:19;;;;;;;3.35;3.15;;;;;;;23.35;86.56;98688.44;5091628;28;20050;-80
2023/07/02 09:26:51;;;;;;;5.10;3.50;;;;;;;23.42;84.75;98670.75;5091540;28;20031;-80
2023/07/02 09:29:31;;;;;;;3.13;2.83;;;;;;;23.74;83.94;98687.50;5091163;28;20032;-80
2023/07/02 09:32:07;;;;;;;4.55;2.95;;;;;;;23.99;82.96;98692.59;5091036;28;20036;-81
2023/07/02 09:34:34;;;;;;;2.95;2.75;;;;;;;24.07;81.91;98666.75;5091090;28;20042;-80
2023/07/02 09:37:00;;;;;;;3.10;2.85;;;;;;;24.33;80.53;98686.75;5090571;28;20048;-80
2023/07/02 09:39:34;;;;;;;3.05;2.85;;;;;;;24.33;80.16;98682.25;5091100;28;20028;-81
2023/07/02 09:42:01;;;;;;;3.53;3.33;;;;;;;24.22;79.67;98666.75;5090838;28;20059;-80
2023/07/02 09:44:30;;;;;;;3.22;2.92;;;;;;;24.12;78.03;98650.25;5091179;28;20032;-80
2023/07/02 09:47:05;;;;;;;3.08;2.78;;;;;;;24.31;78.76;98665.66;5090836;28;20032;-80
2023/07/02 09:49:38;;;;;;;3.40;3.10;;;;;;;24.30;76.66;98674.66;5091065;28;20131;-80
2023/07/02 09:52:05;;;;;;;3.38;2.70;;;;;;;24.43;76.32;98682.00;5090698;28;20493;-81
2023/07/02 09:54:31;;;;;;;3.33;3.05;;;;;;;24.52;76.14;98678.25;5090833;28;20046;-80
2023/07/02 09:56:58;;;;;;;4.30;2.83;;;;;;;24.48;75.45;98666.34;5092767;28;20484;-80
2023/07/02 09:59:24;;;;;;;2.78;2.58;;;;;;;24.70;74.98;98687.72;5093325;28;20088;-81
2023/07/02 10:01:49;;;;;;;2.85;2.65;;;;;;;24.74;73.26;98673.84;5092990;28;20032;-80
2023/07/02 10:04:18;;;;;;;3.28;2.70;;;;;;;24.69;72.49;98676.22;5091740;28;20035;-80
2023/07/02 10:06:57;;;;;;;3.58;2.60;;;;;;;24.72;72.10;98675.03;5092759;28;20067;-80
2023/07/02 10:09:46;;;;;;;2.88;2.67;;;;;;;24.80;72.89;98680.25;5093104;28;20081;-80
2023/07/02 10:12:19;;;;;;;2.63;2.42;;;;;;;24.86;72.32;98677.69;5091786;28;20372;-80
2023/07/02 10:14:46;;;;;;;3.00;2.80;;;;;;;24.91;71.86;98678.97;5092895;28;20505;-80
2023/07/02 10:17:32;;;;;;;2.75;2.55;;;;;;;24.77;72.27;98656.66;5092389;28;20154;-80
2023/07/02 10:20:10;;;;;;;2.50;2.30;;;;;;;24.88;71.44;98682.81;5072124;28;20024;-80
2023/07/02 10:22:52;;;;;;;2.97;2.35;;;;;;;24.72;70.91;98667.84;5072234;28;20063;-80
2023/07/02 10:25:26;;;;;;;2.58;2.38;;;;;;;24.63;71.66;98647.69;5069667;28;20080;-80
2023/07/02 10:27:51;;;;;;;2.78;2.58;;;;;;;24.69;71.13;98670.06;5072220;28;20033;-80
2023/07/02 10:30:16;;;;;;;3.65;2.50;;;;;;;24.87;70.55;98686.50;5072107;28;20430;-80
2023/07/02 10:32:42;;;;;;;3.25;2.58;;;;;;;24.84;70.14;98677.03;5071986;28;20029;-80
2023/07/02 10:35:18;;;;;;;3.42;2.80;;;;;;;24.97;69.73;98683.53;5071775;28;20028;-80
2023/07/02 10:37:45;;;;;;;3.80;2.50;;;;;;;24.98;69.61;98675.34;5072043;28;20055;-80
2023/07/02 10:40:12;;;;;;;2.97;2.72;;;;;;;25.02;69.86;98670.47;5071694;28;20093;-80
2023/07/02 10:42:49;;;;;;;2.65;2.45;;;;;;;25.17;69.79;98670.47;5072060;28;20024;-80
2023/07/02 10:45:14;;;;;;;2.80;2.60;;;;;;;24.98;70.07;98637.22;5071631;28;20392;-80
2023/07/02 10:47:40;;;;;;;3.10;2.80;;;;;;;25.12;69.34;98674.53;5072106;28;20034;-80
2023/07/02 10:50:20;;;;;;;2.80;2.60;;;;;;;25.02;68.87;98654.47;5071679;28;20032;-80
2023/07/02 10:52:46;;;;;;;2.78;2.58;;;;;;;24.99;69.45;98653.03;5072050;28;20032;-80
2023/07/02 10:55:23;;;;;;;2.88;2.67;;;;;;;24.95;69.18;98675.72;5071924;28;20036;-80
2023/07/02 10:57:52;;;;;;;2.65;2.45;;;;;;;24.80;69.62;98672.25;5071818;28;20049;-80
2023/07/02 11:00:18;;;;;;;3.00;2.78;;;;;;;24.48;68.90;98653.03;5071759;28;20028;-80
2023/07/02 11:02:44;;;;;;;3.20;2.92;;;;;;;24.38;69.70;98663.94;5071508;28;20487;-80
2023/07/02 11:05:13;;;;;;;4.80;2.90;;;;;;;24.26;71.71;98667.22;5071286;28;20047;-80
2023/07/02 11:07:39;;;;;;;7.38;2.45;;;;;;;24.03;70.97;98657.47;5071846;28;20035;-80
2023/07/02 11:10:07;;;;;;;3.95;2.65;;;;;;;23.67;70.99;98614.78;5071303;28;20033;-80
2023/07/02 11:12:32;;;;;;;3.63;2.60;;;;;;;23.87;71.77;98663.78;5071675;28;20020;-80
2023/07/02 11:15:11;;;;;;;3.55;2.97;;;;;;;23.81;71.78;98653.06;5071153;28;20103;-80
2023/07/02 11:17:39;;;;;;;3.22;2.80;;;;;;;23.97;72.03;98687.44;5071312;28;20028;-80
2023/07/02 11:20:05;;;;;;;2.70;2.50;;;;;;;23.90;72.33;98668.75;5071547;28;20033;-80
2023/07/02 11:22:32;;;;;;;2.65;2.20;;;;;;;23.79;72.37;98647.91;5075185;28;20024;-80
2023/07/02 11:25:18;;;;;;;3.05;2.85;;;;;;;23.95;71.27;98673.50;5075121;28;20155;-80
2023/07/02 11:27:43;;;;;;;4.20;2.65;;;;;;;23.97;71.05;98660.03;5075313;28;20488;-80
2023/07/02 11:30:10;;;;;;;4.22;2.50;;;;;;;23.90;70.31;98657.28;5075093;28;20043;-80